Time;durP1;ratioP1;P1;durP2;ratioP2;P2;SDS_P1;SDS_P2;PMS_P1;PMS_P2;Temp;Humidity;BMP_temperature;BMP_pressure;BME280_temperature;BME280_humidity;BME280_pressure;Samples;Min_cycle;Max_cycle;Signal;HPM_P1;HPM_P2
2022/04/09 00:01:36;;;;;;;6.43;1.07;;;4.40;99.90;;;;;;6248022;23;20095;-91
2022/04/09 00:04:02;;;;;;;6.67;1.00;;;4.40;99.90;;;;;;6195982;23;20401;-89
2022/04/09 00:06:28;;;;;;;5.70;0.93;;;4.40;99.90;;;;;;6196326;23;20016;-88
2022/04/09 00:08:54;;;;;;;6.03;0.87;;;4.40;99.90;;;;;;6222181;23;20012;-91
2022/04/09 00:11:20;;;;;;;7.90;1.10;;;4.30;99.90;;;;;;6222393;23;20020;-90
2022/04/09 00:13:46;;;;;;;6.20;1.00;;;4.30;99.90;;;;;;6223190;23;20082;-88
2022/04/09 00:16:12;;;;;;;6.57;1.08;;;4.30;99.90;;;;;;6205371;23;20021;-90
2022/04/09 00:18:37;;;;;;;6.47;1.27;;;4.30;99.90;;;;;;6198445;23;20016;-89
2022/04/09 00:21:03;;;;;;;8.97;1.47;;;4.30;99.90;;;;;;6224743;23;20023;-89
2022/04/09 00:23:29;;;;;;;7.23;1.20;;;4.20;99.90;;;;;;6222465;23;20020;-90
2022/04/09 00:25:55;;;;;;;7.27;1.10;;;4.20;99.90;;;;;;6221164;23;20095;-87
2022/04/09 00:28:20;;;;;;;8.43;1.50;;;4.10;99.90;;;;;;6247481;23;20434;-89
2022/04/09 00:30:46;;;;;;;14.10;1.80;;;4.10;99.90;;;;;;6195604;23;20076;-88
2022/04/09 00:33:11;;;;;;;9.63;1.40;;;4.10;99.90;;;;;;6220452;23;20015;-87
2022/04/09 00:35:37;;;;;;;14.57;1.60;;;4.10;99.90;;;;;;6220702;23;20054;-88
2022/04/09 00:38:03;;;;;;;7.00;1.53;;;4.10;99.90;;;;;;6195464;23;20047;-89
2022/04/09 00:40:28;;;;;;;11.70;1.80;;;4.20;99.90;;;;;;6246904;23;20016;-89
2022/04/09 00:42:54;;;;;;;6.63;1.40;;;4.30;99.90;;;;;;6195559;23;20408;-89
2022/04/09 00:45:20;;;;;;;8.37;1.57;;;4.40;99.90;;;;;;6220518;23;20012;-88
2022/04/09 00:47:46;;;;;;;9.10;1.40;;;4.40;99.90;;;;;;6247017;23;20026;-89
2022/04/09 00:50:12;;;;;;;7.57;1.40;;;4.50;99.90;;;;;;6220802;23;20027;-88
2022/04/09 00:52:49;;;;;;;9.52;1.48;;;4.50;99.90;;;;;;6221112;23;20605;-88
2022/04/09 00:58:10;;;;;;;9.75;1.60;;;4.50;99.90;;;;;;6219966;23;20547;-91
2022/04/09 01:05:49;;;;;;;14.95;1.67;;;4.50;99.90;;;;;;6277133;22;20030;-88
2022/04/09 01:08:15;;;;;;;9.40;1.17;;;4.40;99.90;;;;;;6224757;22;20047;-87
2022/04/09 01:10:45;;;;;;;8.85;1.17;;;4.50;99.90;;;;;;6225188;22;20091;-87
2022/04/09 01:13:11;;;;;;;7.80;1.80;;;4.40;99.90;;;;;;6250392;22;20047;-91
2022/04/09 01:15:37;;;;;;;6.97;1.17;;;4.50;99.90;;;;;;6277414;22;20033;-87
2022/04/09 01:18:15;;;;;;;7.70;1.60;;;4.50;99.90;;;;;;6251039;22;20039;-87
2022/04/09 01:20:50;;;;;;;6.55;0.90;;;4.50;99.90;;;;;;6224817;22;20035;-87
2022/04/09 01:23:16;;;;;;;7.45;0.95;;;4.40;99.90;;;;;;6249568;22;20024;-88
2022/04/09 01:25:42;;;;;;;7.20;0.90;;;4.40;99.90;;;;;;6249272;22;20069;-87
2022/04/09 01:28:07;;;;;;;6.37;1.20;;;4.30;99.90;;;;;;6249983;22;20076;-87
2022/04/09 01:30:33;;;;;;;6.57;0.73;;;4.30;99.90;;;;;;6249753;22;20011;-88
2022/04/09 01:32:59;;;;;;;4.75;0.55;;;4.20;99.90;;;;;;6277122;22;20016;-87
2022/04/09 01:35:24;;;;;;;4.20;0.57;;;4.20;99.90;;;;;;6224579;22;20425;-87
2022/04/09 01:37:50;;;;;;;6.93;0.83;;;4.10;99.90;;;;;;6249866;22;20024;-88
2022/04/09 01:40:16;;;;;;;7.37;0.87;;;4.10;99.90;;;;;;6276938;22;20383;-87
2022/04/09 01:42:41;;;;;;;4.80;0.70;;;4.10;99.90;;;;;;6249874;22;20026;-88
2022/04/09 01:45:08;;;;;;;5.03;0.80;;;4.10;99.90;;;;;;6276842;22;20027;-88
2022/04/09 01:47:35;;;;;;;;;;;4.00;99.90;;;;;;6250241;22;20441;-87
2022/04/09 01:50:01;;;;;;;11.65;1.33;;;4.00;99.90;;;;;;6249832;22;19915;-88
2022/04/09 01:52:26;;;;;;;10.15;1.13;;;4.00;99.90;;;;;;6249777;22;20345;-88
2022/04/09 01:54:52;;;;;;;9.57;1.10;;;3.90;99.90;;;;;;6224463;22;20024;-89
2022/04/09 01:57:18;;;;;;;8.03;1.30;;;3.90;99.90;;;;;;6276943;22;20020;-89
2022/04/09 01:59:44;;;;;;;5.53;0.80;;;4.10;99.90;;;;;;6223987;22;20353;-88
2022/04/09 02:02:11;;;;;;;6.22;0.90;;;4.10;99.90;;;;;;6249876;22;20054;-87
2022/04/09 02:04:36;;;;;;;5.35;0.95;;;4.20;99.90;;;;;;6276335;22;20344;-88
2022/04/09 02:07:02;;;;;;;4.47;0.98;;;4.20;99.90;;;;;;6249699;22;20019;-88
2022/04/09 02:09:28;;;;;;;4.53;0.80;;;4.10;99.90;;;;;;6276758;22;20043;-89
2022/04/09 02:11:54;;;;;;;9.43;1.08;;;4.10;99.90;;;;;;6249514;22;20012;-88
2022/04/09 02:14:20;;;;;;;2.40;0.60;;;4.00;99.90;;;;;;6276668;22;20012;-88
2022/04/09 02:16:46;;;;;;;4.33;0.77;;;4.00;99.90;;;;;;6224225;22;20011;-88
2022/04/09 02:19:12;;;;;;;3.00;0.70;;;3.90;99.90;;;;;;6276575;22;20012;-88
2022/04/09 02:21:38;;;;;;;6.20;0.90;;;3.90;99.90;;;;;;6276551;22;20026;-88
2022/04/09 02:24:04;;;;;;;8.73;1.20;;;3.90;99.90;;;;;;6249390;22;20463;-87
2022/04/09 02:26:29;;;;;;;3.90;0.60;;;3.80;99.90;;;;;;6249374;22;20058;-88
2022/04/09 02:28:56;;;;;;;6.27;0.87;;;3.80;99.90;;;;;;6276528;22;20054;-87
2022/04/09 02:31:22;;;;;;;;;;;3.70;99.90;;;;;;6249899;22;20019;-88
2022/04/09 02:33:48;;;;;;;7.30;0.80;;;3.60;99.90;;;;;;6223835;22;20295;-87
2022/04/09 02:36:14;;;;;;;6.47;1.00;;;3.60;99.90;;;;;;6224138;22;20020;-88
2022/04/09 02:38:40;;;;;;;9.50;1.47;;;3.50;99.90;;;;;;6249416;22;20122;-88
2022/04/09 02:41:09;;;;;;;6.78;1.40;;;3.60;99.90;;;;;;6248543;22;20290;-87
2022/04/09 02:43:40;;;;;;;7.97;1.45;;;3.70;99.90;;;;;;6248605;22;20033;-87
2022/04/09 02:46:06;;;;;;;11.27;1.60;;;3.70;99.90;;;;;;6275904;22;20350;-87
2022/04/09 02:48:31;;;;;;;7.43;1.30;;;3.80;99.90;;;;;;6276464;22;20016;-87
2022/04/09 02:50:57;;;;;;;9.23;1.80;;;3.90;99.90;;;;;;6276342;22;20045;-88
2022/04/09 02:53:23;;;;;;;9.23;1.20;;;3.90;99.90;;;;;;6276390;22;20353;-88
2022/04/09 02:55:51;;;;;;;7.00;1.03;;;3.90;99.90;;;;;;6224034;22;20026;-87
2022/04/09 02:58:17;;;;;;;12.75;1.55;;;3.90;99.90;;;;;;6276381;22;20016;-87
2022/04/09 03:00:43;;;;;;;6.60;1.05;;;3.90;99.90;;;;;;6249340;22;20115;-88
2022/04/09 03:03:08;;;;;;;7.70;1.20;;;3.90;99.90;;;;;;6223942;22;20008;-87
2022/04/09 03:05:34;;;;;;;7.87;1.40;;;3.80;99.90;;;;;;6248790;22;20077;-88
2022/04/09 03:08:00;;;;;;;8.67;1.10;;;3.80;99.90;;;;;;6222985;22;20020;-88
2022/04/09 03:10:26;;;;;;;9.38;1.10;;;3.80;99.90;;;;;;6249063;22;20019;-87
2022/04/09 03:12:52;;;;;;;5.22;0.80;;;3.70;99.90;;;;;;6276274;22;20050;-87
2022/04/09 03:15:18;;;;;;;10.20;1.00;;;3.70;99.90;;;;;;6249290;22;20065;-88
2022/04/09 03:17:44;;;;;;;9.90;1.30;;;3.70;99.90;;;;;;6249614;22;20018;-88
2022/04/09 03:20:10;;;;;;;9.03;1.37;;;3.60;99.90;;;;;;6223774;22;20015;-88
2022/04/09 03:22:36;;;;;;;7.57;1.23;;;3.60;99.90;;;;;;6249397;22;20027;-88
2022/04/09 03:25:02;;;;;;;8.32;1.05;;;3.50;99.90;;;;;;6224142;22;20011;-88
2022/04/09 03:27:29;;;;;;;5.80;1.48;;;3.50;99.90;;;;;;6223883;22;20012;-88
2022/04/09 03:29:55;;;;;;;8.00;1.30;;;3.50;99.90;;;;;;6276415;22;20345;-87
2022/04/09 03:32:21;;;;;;;9.70;1.30;;;3.50;99.90;;;;;;6248956;22;20024;-87
2022/04/09 03:34:48;;;;;;;7.75;1.42;;;3.50;99.90;;;;;;6249143;22;20011;-86
2022/04/09 03:37:14;;;;;;;7.95;1.85;;;3.50;99.90;;;;;;6276331;22;20020;-87
2022/04/09 03:39:41;;;;;;;10.40;1.60;;;3.50;99.90;;;;;;6224006;22;20012;-88
2022/04/09 03:42:07;;;;;;;10.00;1.30;;;3.50;99.90;;;;;;6224082;22;20020;-87
2022/04/09 03:44:33;;;;;;;6.28;1.23;;;3.50;99.90;;;;;;6249335;22;20445;-87
2022/04/09 03:47:00;;;;;;;13.30;2.03;;;3.50;99.90;;;;;;6276341;22;20016;-87
2022/04/09 03:49:28;;;;;;;9.73;1.50;;;3.60;99.90;;;;;;6276879;22;20015;-88
2022/04/09 03:51:53;;;;;;;10.52;1.38;;;3.60;99.90;;;;;;6277822;22;20502;-87
2022/04/09 03:54:19;;;;;;;7.97;1.60;;;3.60;99.90;;;;;;6277928;22;20061;-87
2022/04/09 03:56:45;;;;;;;8.47;1.50;;;3.70;99.90;;;;;;6251333;22;20016;-87
2022/04/09 03:59:11;;;;;;;11.17;1.17;;;3.70;99.90;;;;;;6251432;22;20022;-87
2022/04/09 04:01:36;;;;;;;5.95;1.13;;;3.70;99.90;;;;;;6277984;22;20243;-87
2022/04/09 04:04:03;;;;;;;10.10;1.37;;;3.70;99.90;;;;;;6277981;22;20050;-87
2022/04/09 04:06:29;;;;;;;7.57;1.70;;;3.70;99.90;;;;;;6250916;22;20086;-88
2022/04/09 04:08:58;;;;;;;8.27;1.30;;;3.70;99.90;;;;;;6250519;22;20091;-86
2022/04/09 04:11:24;;;;;;;9.05;1.70;;;3.70;99.90;;;;;;6250597;22;20023;-88
2022/04/09 04:13:50;;;;;;;13.23;1.42;;;3.60;99.90;;;;;;6250597;22;20019;-86
2022/04/09 04:16:16;;;;;;;10.88;1.65;;;3.60;99.90;;;;;;6250653;22;20019;-86
2022/04/09 04:18:42;;;;;;;11.70;1.80;;;3.60;99.90;;;;;;6250658;22;20453;-87
2022/04/09 04:21:08;;;;;;;8.80;1.42;;;3.60;99.90;;;;;;6277578;22;20020;-86
2022/04/09 04:23:34;;;;;;;11.38;1.90;;;3.70;99.90;;;;;;6225230;22;20021;-88
2022/04/09 04:26:00;;;;;;;10.63;1.77;;;3.70;99.90;;;;;;6250609;22;20022;-88
2022/04/09 04:28:26;;;;;;;8.35;1.38;;;3.70;99.90;;;;;;6277857;22;20468;-86
2022/04/09 04:30:52;;;;;;;7.47;1.60;;;3.70;99.90;;;;;;6250443;22;20027;-86
2022/04/09 04:33:18;;;;;;;10.50;2.10;;;3.70;99.90;;;;;;6250377;22;20090;-86
2022/04/09 04:35:44;;;;;;;6.97;1.80;;;3.70;99.90;;;;;;6250567;22;20024;-87
2022/04/09 04:38:11;;;;;;;11.17;1.53;;;3.70;99.90;;;;;;6250320;22;20015;-86
2022/04/09 04:40:36;;;;;;;10.13;1.70;;;3.70;99.90;;;;;;6277322;22;20254;-87
2022/04/09 04:43:02;;;;;;;8.35;1.40;;;3.60;99.90;;;;;;6277312;22;20353;-86
2022/04/09 04:45:29;;;;;;;14.20;1.70;;;3.60;99.90;;;;;;6277247;22;20023;-86
2022/04/09 04:47:55;;;;;;;;;;;3.50;99.90;;;;;;6250724;22;20022;-86
2022/04/09 04:50:21;;;;;;;12.20;1.77;;;3.50;99.90;;;;;;6277228;22;19914;-86
2022/04/09 04:52:47;;;;;;;12.87;1.60;;;3.50;99.90;;;;;;6277387;22;20038;-86
2022/04/09 04:55:14;;;;;;;10.60;1.45;;;3.50;99.90;;;;;;6277453;22;20235;-86
2022/04/09 04:57:50;;;;;;;13.13;1.52;;;3.50;99.90;;;;;;6277304;22;20027;-86
2022/04/09 05:00:19;;;;;;;10.10;1.65;;;3.50;99.90;;;;;;6276284;22;20020;-86
2022/04/09 05:02:45;;;;;;;7.75;1.88;;;3.50;99.90;;;;;;6277362;22;20019;-87
2022/04/09 05:05:11;;;;;;;8.07;1.30;;;3.50;99.90;;;;;;6277060;22;20011;-88
2022/04/09 05:07:48;;;;;;;11.67;1.37;;;3.50;99.90;;;;;;6277274;22;20344;-88
2022/04/09 05:10:16;;;;;;;14.48;1.63;;;3.50;99.90;;;;;;6250258;22;20095;-87
2022/04/09 05:12:42;;;;;;;9.85;1.38;;;3.50;99.90;;;;;;6250250;22;20023;-87
2022/04/09 05:15:10;;;;;;;13.32;1.77;;;3.40;99.90;;;;;;6224964;22;20087;-87
2022/04/09 05:17:36;;;;;;;10.65;2.08;;;3.40;99.90;;;;;;6224521;22;20356;-88
2022/04/09 05:20:03;;;;;;;7.40;1.33;;;3.30;99.90;;;;;;6250080;22;20515;-87
2022/04/09 05:22:30;;;;;;;10.50;1.83;;;3.30;99.90;;;;;;6224500;22;20083;-86
2022/04/09 05:24:58;;;;;;;9.77;1.42;;;3.30;99.90;;;;;;6276858;22;20050;-89
2022/04/09 05:27:24;;;;;;;8.98;1.67;;;3.30;99.90;;;;;;6249720;22;20085;-87
2022/04/09 05:29:50;;;;;;;7.88;1.70;;;3.30;99.90;;;;;;6249895;22;20020;-88
2022/04/09 05:32:17;;;;;;;10.23;1.63;;;3.30;99.90;;;;;;6249888;22;20340;-87
2022/04/09 05:34:42;;;;;;;11.57;1.75;;;3.40;99.90;;;;;;6277117;22;20242;-87
2022/04/09 05:37:08;;;;;;;14.93;1.60;;;3.40;99.90;;;;;;6276758;22;20150;-88
2022/04/09 05:39:35;;;;;;;14.57;1.97;;;3.50;99.90;;;;;;6276822;22;20019;-89
2022/04/09 05:42:00;;;;;;;14.18;1.80;;;3.60;99.90;;;;;;6249980;22;20011;-87
2022/04/09 05:44:26;;;;;;;9.33;1.30;;;3.60;99.90;;;;;;6276880;22;20121;-88
2022/04/09 05:46:52;;;;;;;7.55;1.08;;;3.70;99.90;;;;;;6276644;22;20018;-87
2022/04/09 05:49:20;;;;;;;11.63;1.17;;;3.80;99.90;;;;;;6249816;22;20020;-88
2022/04/09 05:51:47;;;;;;;8.95;1.25;;;3.80;99.90;;;;;;6276826;22;20062;-87
2022/04/09 05:54:13;;;;;;;8.43;1.20;;;3.90;99.90;;;;;;6249725;22;20464;-88
2022/04/09 05:56:38;;;;;;;8.37;1.10;;;4.10;99.90;;;;;;6275107;22;20015;-87
2022/04/09 05:59:04;;;;;;;8.53;1.40;;;4.10;99.90;;;;;;6249793;22;20029;-87
2022/04/09 06:01:31;;;;;;;6.73;0.93;;;4.20;99.90;;;;;;6276734;22;20016;-88
2022/04/09 06:03:58;;;;;;;;;;;4.30;99.90;;;;;;6277273;22;20245;-87
2022/04/09 06:06:23;;;;;;;6.82;0.93;;;4.40;99.90;;;;;;6274345;22;19940;-87
2022/04/09 06:08:50;;;;;;;6.35;1.40;;;4.50;99.90;;;;;;6249546;22;20051;-87
2022/04/09 06:11:16;;;;;;;6.40;0.68;;;4.60;99.90;;;;;;6276664;22;20027;-87
2022/04/09 06:13:42;;;;;;;7.63;1.30;;;4.70;99.90;;;;;;6249337;22;20019;-88
2022/04/09 06:16:09;;;;;;;10.50;1.43;;;4.80;99.90;;;;;;6276615;22;20027;-87
2022/04/09 06:18:38;;;;;;;7.78;1.20;;;4.90;99.90;;;;;;6276479;22;20016;-87
2022/04/09 06:21:05;;;;;;;7.85;1.38;;;4.90;99.90;;;;;;6276634;22;20319;-87
2022/04/09 06:23:31;;;;;;;8.07;1.70;;;4.90;99.90;;;;;;6276532;22;20019;-87
2022/04/09 06:25:56;;;;;;;11.88;1.65;;;4.80;99.90;;;;;;6249477;22;20007;-88
2022/04/09 06:28:22;;;;;;;7.85;1.40;;;4.80;99.90;;;;;;6276799;22;20441;-87
2022/04/09 06:30:47;;;;;;;12.30;1.57;;;5.10;99.90;;;;;;6249520;22;20018;-86
2022/04/09 06:33:13;;;;;;;7.97;1.20;;;5.20;99.90;;;;;;6276825;22;20078;-86
2022/04/09 06:35:39;;;;;;;7.03;1.17;;;5.30;99.90;;;;;;6276551;22;20332;-87
2022/04/09 06:38:04;;;;;;;7.93;1.30;;;5.80;99.90;;;;;;6249395;22;20333;-87
2022/04/09 06:40:30;;;;;;;11.03;1.53;;;6.40;99.90;;;;;;6276446;22;20011;-86
2022/04/09 06:42:57;;;;;;;11.07;1.20;;;7.00;99.90;;;;;;6275022;22;20364;-86
2022/04/09 06:45:23;;;;;;;12.10;1.65;;;7.50;99.90;;;;;;6276589;22;20022;-87
2022/04/09 06:47:55;;;;;;;10.30;1.57;;;7.80;99.90;;;;;;6276624;22;20012;-85
2022/04/09 06:50:21;;;;;;;11.13;1.48;;;7.50;99.90;;;;;;6223779;22;20399;-85
2022/04/09 06:52:47;;;;;;;12.33;1.40;;;7.10;99.90;;;;;;6223270;22;20086;-86
2022/04/09 06:55:13;;;;;;;10.50;1.27;;;6.70;99.90;;;;;;6223813;22;20043;-88
2022/04/09 06:57:41;;;;;;;9.50;1.50;;;6.40;99.90;;;;;;6249277;22;20254;-87
2022/04/09 07:00:16;;;;;;;14.63;1.98;;;6.10;99.90;;;;;;6249138;22;20345;-87
2022/04/09 07:03:19;;;;;;;10.88;1.35;;;6.00;99.90;;;;;;6243074;22;20103;-87
2022/04/09 07:05:44;;;;;;;13.23;1.73;;;6.20;99.90;;;;;;6260819;22;20022;-87
2022/04/09 07:08:10;;;;;;;11.83;1.63;;;7.00;99.90;;;;;;6223900;22;20020;-87
2022/04/09 07:10:39;;;;;;;12.37;2.10;;;7.60;99.90;;;;;;6249280;22;20337;-89
2022/04/09 07:13:08;;;;;;;14.18;2.03;;;7.90;99.90;;;;;;6249427;22;20028;-88
2022/04/09 07:15:34;;;;;;;10.32;2.00;;;8.00;99.90;;;;;;6249494;22;20018;-88
2022/04/09 07:18:21;;;;;;;13.43;2.00;;;7.80;99.90;;;;;;6276826;22;20477;-88
2022/04/09 07:20:47;;;;;;;13.25;2.00;;;7.40;99.90;;;;;;6249644;22;20015;-86
2022/04/09 07:23:13;;;;;;;13.80;2.10;;;7.00;99.90;;;;;;6249613;22;20094;-87
2022/04/09 07:25:38;;;;;;;13.73;2.00;;;6.80;99.90;;;;;;6251133;22;20094;-85
2022/04/09 07:28:04;;;;;;;13.60;1.60;;;6.70;99.90;;;;;;6251614;22;20034;-92
2022/04/09 07:30:30;;;;;;;11.87;1.70;;;6.80;99.90;;;;;;6252250;22;20073;-95
2022/04/09 07:33:24;;;;;;;15.05;2.28;;;7.30;99.90;;;;;;6226568;22;20055;-90
2022/04/09 07:36:30;;;;;;;11.95;1.85;;;7.80;99.90;;;;;;6226335;22;20368;-87
2022/04/09 07:39:11;;;;;;;10.25;1.63;;;8.20;99.90;;;;;;6273171;22;20016;-91
2022/04/09 07:41:37;;;;;;;9.60;1.55;;;8.50;99.90;;;;;;6225289;22;20026;-90
2022/04/09 07:44:03;;;;;;;7.77;1.10;;;8.70;99.90;;;;;;6226735;22;20012;-91
2022/04/09 07:46:28;;;;;;;10.37;1.27;;;8.70;99.90;;;;;;6226312;22;20094;-88
2022/04/09 07:48:54;;;;;;;12.77;1.60;;;8.50;99.90;;;;;;6226000;22;20542;-91
2022/04/09 07:51:20;;;;;;;16.70;2.27;;;8.30;99.90;;;;;;6226388;22;20121;-94
2022/04/09 07:53:46;;;;;;;19.80;2.20;;;8.20;99.90;;;;;;6251967;22;20516;-90
2022/04/09 07:56:11;;;;;;;9.50;1.50;;;7.90;99.90;;;;;;6226323;22;20353;-91
2022/04/09 07:58:37;;;;;;;13.27;1.77;;;7.80;99.90;;;;;;6252006;22;20019;-90
2022/04/09 08:01:03;;;;;;;12.50;1.93;;;7.60;99.90;;;;;;6226727;22;20409;-94
2022/04/09 08:03:28;;;;;;;14.00;2.13;;;7.60;99.90;;;;;;6225264;22;20008;-88
2022/04/09 08:05:54;;;;;;;14.23;2.00;;;7.40;99.90;;;;;;6225940;22;20019;-90
2022/04/09 08:08:20;;;;;;;13.07;2.00;;;7.40;99.90;;;;;;6251758;22;20528;-88
2022/04/09 08:10:46;;;;;;;16.63;1.83;;;7.30;99.90;;;;;;6251612;22;20095;-87
2022/04/09 08:13:14;;;;;;;13.23;2.00;;;7.10;99.90;;;;;;6250650;22;20142;-89
2022/04/09 08:15:40;;;;;;;14.68;2.72;;;7.00;99.90;;;;;;6251368;22;20019;-89
2022/04/09 08:18:06;;;;;;;10.23;1.80;;;6.90;99.90;;;;;;6251510;22;20016;-89
2022/04/09 08:20:32;;;;;;;15.82;2.22;;;6.80;99.90;;;;;;6226158;22;20019;-93
2022/04/09 08:23:00;;;;;;;15.33;1.90;;;6.70;99.90;;;;;;6250669;22;20047;-90
2022/04/09 08:25:27;;;;;;;4.68;0.40;;;6.70;99.90;;;;;;6249283;22;20075;-87
2022/04/09 08:27:53;;;;;;;6.32;0.65;;;6.60;99.90;;;;;;6249451;22;20011;-88
2022/04/09 08:30:19;;;;;;;5.43;0.68;;;6.30;99.90;;;;;;6278033;22;20015;-89
2022/04/09 08:32:46;;;;;;;3.08;0.20;;;6.10;99.90;;;;;;6251423;22;20026;-88
2022/04/09 08:35:12;;;;;;;3.50;0.65;;;5.90;99.90;;;;;;6250912;22;20023;-89
2022/04/09 08:37:40;;;;;;;7.23;0.90;;;5.70;99.90;;;;;;6251276;22;20011;-90
2022/04/09 08:40:07;;;;;;;7.20;0.90;;;5.70;99.90;;;;;;6251121;22;20019;-92
2022/04/09 08:42:35;;;;;;;9.70;1.00;;;5.70;99.90;;;;;;6225856;22;20015;-89
2022/04/09 08:45:01;;;;;;;7.53;0.90;;;5.80;99.90;;;;;;6251207;22;20019;-89
2022/04/09 08:47:28;;;;;;;7.97;1.33;;;5.90;99.90;;;;;;6251171;22;20437;-89
2022/04/09 08:49:56;;;;;;;11.27;1.70;;;6.10;99.90;;;;;;6251228;22;20242;-89
2022/04/09 08:52:22;;;;;;;7.60;1.17;;;6.30;99.90;;;;;;6250708;22;20011;-92
2022/04/09 08:54:48;;;;;;;13.88;1.52;;;6.50;99.90;;;;;;6252397;22;20098;-96
2022/04/09 08:57:14;;;;;;;6.80;0.63;;;6.60;99.90;;;;;;6256233;22;20015;-93
2022/04/09 08:59:41;;;;;;;7.25;0.75;;;6.60;99.90;;;;;;6251984;22;20019;-93
2022/04/09 09:21:03;;;;;;;3.42;0.40;;;5.30;99.90;;;;;;6233901;23;20020;-87
2022/04/09 09:23:33;;;;;;;1.65;0.25;;;5.50;99.90;;;;;;6219602;23;20090;-87
2022/04/09 09:26:00;;;;;;;6.18;0.60;;;5.70;99.90;;;;;;6193381;23;20524;-89
2022/04/09 09:28:27;;;;;;;;;;;5.90;99.90;;;;;;6195569;23;20048;-88
2022/04/09 09:30:54;;;;;;;6.95;0.70;;;6.10;99.90;;;;;;6219721;23;19915;-89
2022/04/09 09:33:21;;;;;;;4.80;1.13;;;6.40;99.90;;;;;;6194730;23;20453;-90
2022/04/09 09:35:54;;;;;;;9.27;1.10;;;6.60;99.90;;;;;;6219675;23;20384;-89
2022/04/09 09:38:27;;;;;;;8.63;1.20;;;6.80;99.90;;;;;;6194607;23;20016;-89
2022/04/09 09:40:53;;;;;;;6.75;0.93;;;7.10;99.90;;;;;;6194379;23;20016;-86
2022/04/09 09:43:24;;;;;;;10.57;1.30;;;7.30;99.90;;;;;;6194904;23;20016;-88
2022/04/09 09:45:53;;;;;;;9.65;1.20;;;7.50;99.90;;;;;;6194559;23;20024;-86
2022/04/09 09:48:35;;;;;;;10.40;1.75;;;7.70;99.90;;;;;;6196286;23;20094;-88
2022/04/09 09:51:04;;;;;;;7.70;0.80;;;7.80;99.90;;;;;;6194477;23;20074;-93
2022/04/09 09:53:36;;;;;;;10.60;1.38;;;7.70;99.90;;;;;;6193809;23;20086;-86
2022/04/09 09:56:13;;;;;;;9.52;1.13;;;7.40;99.90;;;;;;6218550;23;20027;-86
2022/04/09 09:58:39;;;;;;;6.07;0.90;;;7.10;99.90;;;;;;6218975;23;20016;-91
2022/04/09 10:01:13;;;;;;;4.80;0.83;;;6.80;99.90;;;;;;6194606;23;20769;-90
2022/04/09 10:03:40;;;;;;;2.80;0.30;;;6.60;99.90;;;;;;6194708;23;20473;-88
2022/04/09 10:06:07;;;;;;;;;;;6.50;99.90;;;;;;6194926;23;20027;-89
2022/04/09 10:08:33;;;;;;;3.67;0.20;;;6.40;99.90;;;;;;6219408;23;19994;-90
2022/04/09 10:11:01;;;;;;;1.60;0.23;;;6.30;99.90;;;;;;6194914;23;20070;-91
2022/04/09 10:13:28;;;;;;;2.40;0.30;;;6.30;99.90;;;;;;6195203;23;20020;-92
2022/04/09 10:15:54;;;;;;;5.05;0.60;;;6.30;99.90;;;;;;6193280;23;20058;-89
2022/04/09 10:18:23;;;;;;;3.78;0.60;;;6.40;99.90;;;;;;6192909;23;20356;-86
2022/04/09 10:20:59;;;;;;;6.13;0.63;;;6.50;99.90;;;;;;6218752;23;20023;-88
2022/04/09 10:23:27;;;;;;;7.68;0.90;;;6.60;99.90;;;;;;6219504;23;20020;-88
2022/04/09 10:25:54;;;;;;;11.98;0.90;;;6.60;99.90;;;;;;6194426;23;20011;-88
2022/04/09 10:28:40;;;;;;;5.13;0.90;;;6.50;99.90;;;;;;6194703;23;20082;-90
2022/04/09 10:31:24;;;;;;;6.70;0.63;;;6.40;99.90;;;;;;6194454;23;20012;-88
2022/04/09 10:33:57;;;;;;;6.00;0.50;;;6.30;99.90;;;;;;6194461;23;20024;-88
2022/04/09 10:36:41;;;;;;;6.40;0.60;;;6.40;99.90;;;;;;6194408;23;20012;-91
2022/04/09 10:39:22;;;;;;;5.35;0.65;;;6.40;99.90;;;;;;6194246;23;20388;-90
2022/04/09 10:41:49;;;;;;;4.55;0.65;;;6.50;99.90;;;;;;6194398;23;20016;-89
2022/04/09 10:44:33;;;;;;;6.75;0.68;;;6.60;99.90;;;;;;6219435;23;20098;-85
2022/04/09 10:47:04;;;;;;;5.13;0.80;;;6.70;99.90;;;;;;6194616;23;20445;-88
2022/04/09 10:49:30;;;;;;;7.00;0.90;;;6.80;99.90;;;;;;6219432;23;20020;-89
2022/04/09 10:52:08;;;;;;;5.32;0.68;;;6.90;99.90;;;;;;6219492;23;20027;-88
2022/04/09 10:54:34;;;;;;;3.42;0.35;;;7.10;99.90;;;;;;6193901;23;20102;-87
2022/04/09 10:57:08;;;;;;;4.03;0.53;;;7.30;99.90;;;;;;6219457;23;20016;-87
2022/04/09 10:59:57;;;;;;;6.75;0.60;;;7.40;99.90;;;;;;6195827;23;20023;-90
2022/04/09 11:48:25;;;;;;;4.65;1.00;;;8.60;99.90;;;;;;6193113;23;1225961;-93
2022/04/09 11:51:16;;;;;;;7.32;1.25;;;8.70;99.90;;;;;;6196865;23;20098;-94
2022/04/09 11:53:41;;;;;;;7.70;1.23;;;8.90;99.90;;;;;;6219904;23;20054;-93
2022/04/09 11:56:07;;;;;;;6.70;0.97;;;9.00;99.90;;;;;;6195751;23;20012;-89
2022/04/09 11:59:15;;;;;;;11.50;1.73;;;8.90;99.90;;;;;;6196423;23;20078;-93
2022/04/09 12:14:41;;;;;;;9.55;1.40;;;9.10;99.90;;;;;;6225554;23;20024;-91
2022/04/09 12:17:15;;;;;;;7.68;1.08;;;9.00;99.90;;;;;;6197209;23;20031;-93
2022/04/09 12:19:44;;;;;;;8.40;0.80;;;8.80;99.90;;;;;;6195824;23;20016;-89
2022/04/09 12:22:24;;;;;;;11.27;2.00;;;8.50;99.90;;;;;;6195762;23;20480;-90
2022/04/09 12:27:50;;;;;;;7.25;1.30;;;8.40;99.90;;;;;;6247293;23;20315;-89
2022/04/09 12:30:16;;;;;;;7.88;1.15;;;8.40;99.90;;;;;;6196680;23;20055;-89
2022/04/09 12:32:41;;;;;;;11.00;1.90;;;8.50;99.90;;;;;;6195387;23;20019;-89
2022/04/09 12:35:11;;;;;;;5.83;0.90;;;8.70;99.90;;;;;;6195526;23;20042;-89
2022/04/09 12:37:47;;;;;;;5.13;0.90;;;8.80;99.90;;;;;;6195893;23;20351;-89
2022/04/09 12:40:23;;;;;;;4.15;0.73;;;9.00;99.90;;;;;;6195734;23;20020;-88
2022/04/09 12:42:49;;;;;;;8.60;1.13;;;9.10;99.90;;;;;;6220432;23;20408;-88
2022/04/09 12:45:22;;;;;;;7.35;1.10;;;9.00;99.90;;;;;;6195393;23;20019;-89
2022/04/09 12:48:01;;;;;;;8.57;1.02;;;8.90;99.90;;;;;;6195582;23;20069;-93
2022/04/09 12:50:30;;;;;;;12.52;1.40;;;8.80;99.90;;;;;;6195297;23;20016;-87
2022/04/09 12:52:59;;;;;;;8.75;1.25;;;8.80;99.90;;;;;;6195234;23;20023;-87
2022/04/09 12:55:25;;;;;;;8.30;1.40;;;8.70;99.90;;;;;;6195938;23;20043;-88
2022/04/09 12:57:52;;;;;;;10.30;1.00;;;8.80;99.90;;;;;;6221707;23;20322;-91
2022/04/09 13:00:18;;;;;;;8.57;1.08;;;8.80;99.90;;;;;;6194864;23;20016;-90
2022/04/09 13:02:46;;;;;;;4.82;0.75;;;8.80;99.90;;;;;;6195496;23;20016;-88
2022/04/09 13:05:13;;;;;;;9.30;1.23;;;8.70;99.90;;;;;;6219618;23;20081;-91
2022/04/09 13:07:43;;;;;;;14.00;1.30;;;8.60;99.90;;;;;;6220835;23;20020;-92
2022/04/09 13:10:11;;;;;;;8.07;1.05;;;8.60;99.90;;;;;;6196022;23;20446;-92
2022/04/09 13:12:48;;;;;;;11.63;1.48;;;8.60;99.90;;;;;;6218738;23;20099;-91
2022/04/09 13:15:14;;;;;;;;;;;8.40;99.90;;;;;;6221057;23;20027;-91
2022/04/09 13:17:46;;;;;;;9.48;1.20;;;8.50;99.90;;;;;;6195258;23;19915;-91
2022/04/09 13:20:12;;;;;;;9.35;1.10;;;8.50;99.90;;;;;;6195219;23;20016;-91
2022/04/09 13:22:40;;;;;;;7.78;1.17;;;8.40;99.90;;;;;;6195097;23;20016;-89
2022/04/09 13:25:17;;;;;;;10.63;1.30;;;8.30;99.90;;;;;;6195242;23;20026;-90
2022/04/09 13:27:45;;;;;;;10.52;1.63;;;8.10;99.90;;;;;;6195300;23;20020;-88
2022/04/09 13:30:14;;;;;;;11.52;1.90;;;7.90;99.90;;;;;;6195624;23;20095;-90
2022/04/09 13:32:40;;;;;;;12.10;1.88;;;7.90;99.90;;;;;;6195098;23;20058;-93
2022/04/09 13:35:06;;;;;;;7.83;1.27;;;7.90;99.90;;;;;;6195428;23;20020;-90
2022/04/09 13:37:33;;;;;;;9.43;1.17;;;8.00;99.90;;;;;;6195188;23;20008;-90
2022/04/09 13:39:59;;;;;;;5.78;1.20;;;8.10;99.90;;;;;;6195320;23;20105;-92
2022/04/09 13:42:26;;;;;;;6.22;0.75;;;8.10;99.90;;;;;;6195441;23;20031;-91
2022/04/09 13:44:51;;;;;;;6.97;1.50;;;8.30;99.90;;;;;;6195339;23;20544;-91
2022/04/09 13:47:17;;;;;;;8.37;0.97;;;8.30;99.90;;;;;;6194921;23;20016;-89
2022/04/09 13:49:43;;;;;;;4.20;1.02;;;8.50;99.90;;;;;;6195323;23;20049;-89
2022/04/09 13:52:10;;;;;;;8.13;1.20;;;8.60;99.90;;;;;;6195417;23;20095;-91
2022/04/09 13:54:36;;;;;;;3.42;0.60;;;8.80;99.90;;;;;;6195648;23;20016;-90
2022/04/09 13:57:04;;;;;;;4.33;0.60;;;8.80;99.90;;;;;;6220429;23;20480;-91
2022/04/09 13:59:30;;;;;;;6.18;0.80;;;8.90;99.90;;;;;;6221034;23;20310;-87
2022/04/09 14:01:56;;;;;;;3.60;0.70;;;8.90;99.90;;;;;;6222254;23;20016;-88
2022/04/09 14:04:23;;;;;;;6.43;0.90;;;8.70;99.90;;;;;;6221009;23;20255;-92
2022/04/09 14:06:49;;;;;;;8.20;0.88;;;8.50;99.90;;;;;;6195279;23;20048;-90
2022/04/09 14:09:15;;;;;;;5.43;0.70;;;8.20;99.90;;;;;;6220261;23;20483;-93
2022/04/09 14:11:41;;;;;;;6.00;0.77;;;8.10;99.90;;;;;;6195373;23;20020;-88
2022/04/09 14:14:08;;;;;;;5.50;0.88;;;8.10;99.90;;;;;;6220417;23;20023;-90
2022/04/09 14:16:33;;;;;;;6.85;1.00;;;8.20;99.90;;;;;;6194959;23;20027;-89
2022/04/09 14:18:59;;;;;;;11.40;1.33;;;8.20;99.90;;;;;;6193922;23;20012;-88
2022/04/09 14:21:28;;;;;;;7.70;1.10;;;8.40;99.90;;;;;;6195987;23;20047;-89
2022/04/09 14:23:53;;;;;;;7.90;1.08;;;8.50;99.90;;;;;;6220989;23;20020;-89
2022/04/09 14:26:19;;;;;;;12.10;1.50;;;8.40;99.90;;;;;;6196196;23;20020;-88
2022/04/09 14:28:45;;;;;;;11.40;1.77;;;8.10;99.90;;;;;;6195842;23;20016;-88